Time;durP1;ratioP1;P1;durP2;ratioP2;P2;SDS_P1;SDS_P2;PMS_P1;PMS_P2;Temp;Humidity;BMP_temperature;BMP_pressure;BME280_temperature;BME280_humidity;BME280_pressure;Samples;Min_cycle;Max_cycle;Signal;HPM_P1;HPM_P2
2023/07/16 00:00:13;;;;;;;3.30;1.88;;;19.10;99.90;;;;;;5040086;28;20021;-41
2023/07/16 00:02:39;;;;;;;2.38;1.65;;;19.10;99.90;;;;;;5045296;28;20465;-42
2023/07/16 00:05:05;;;;;;;3.22;1.55;;;19.00;99.90;;;;;;5044106;28;20020;-42
2023/07/16 00:07:31;;;;;;;6.35;1.88;;;19.00;99.90;;;;;;5044926;28;20090;-41
2023/07/16 00:09:59;;;;;;;1.90;1.60;;;19.00;99.90;;;;;;5045301;28;20037;-42
2023/07/16 00:12:25;;;;;;;4.25;1.80;;;19.00;99.90;;;;;;5045227;28;20025;-42
2023/07/16 00:14:51;;;;;;;3.33;1.67;;;18.90;99.90;;;;;;5044571;28;20109;-42
2023/07/16 00:17:16;;;;;;;3.28;2.20;;;18.90;99.90;;;;;;5044729;28;20057;-42
2023/07/16 00:19:42;;;;;;;2.03;1.50;;;18.90;99.90;;;;;;5044846;28;20064;-42
2023/07/16 00:22:13;;;;;;;3.42;1.70;;;18.80;99.90;;;;;;5045125;28;20021;-42
2023/07/16 00:24:42;;;;;;;4.68;1.80;;;18.90;99.90;;;;;;5045292;28;20416;-41
2023/07/16 00:27:08;;;;;;;5.53;1.85;;;18.90;99.90;;;;;;5044940;28;20024;-42
2023/07/16 00:29:33;;;;;;;3.67;1.38;;;18.90;99.90;;;;;;5044741;28;20048;-41
2023/07/16 00:31:59;;;;;;;3.50;1.60;;;18.90;99.90;;;;;;5044843;28;20028;-41
2023/07/16 00:34:30;;;;;;;2.15;1.40;;;18.90;99.90;;;;;;5044676;28;20021;-42
2023/07/16 00:37:01;;;;;;;2.53;1.50;;;18.90;99.90;;;;;;5045197;28;20052;-42
2023/07/16 00:39:28;;;;;;;2.75;1.30;;;19.00;99.90;;;;;;5044865;28;20044;-42
2023/07/16 00:42:02;;;;;;;2.05;1.67;;;18.90;99.90;;;;;;5044811;28;20029;-42
2023/07/16 00:44:28;;;;;;;3.95;1.60;;;18.90;99.90;;;;;;5045404;28;20075;-41
2023/07/16 00:46:53;;;;;;;3.25;1.83;;;18.90;99.90;;;;;;5043866;28;20025;-42
2023/07/16 00:49:19;;;;;;;3.30;1.90;;;18.90;99.90;;;;;;5044813;28;20095;-42
2023/07/16 00:51:48;;;;;;;3.03;1.77;;;18.90;99.90;;;;;;5044125;28;20033;-42
2023/07/16 00:54:13;;;;;;;4.70;2.08;;;18.90;99.90;;;;;;5043574;28;20027;-41
2023/07/16 00:56:39;;;;;;;4.00;2.53;;;18.90;99.90;;;;;;5044474;28;20029;-42
2023/07/16 00:59:05;;;;;;;3.70;2.22;;;18.80;99.90;;;;;;5045186;28;20536;-42
2023/07/16 01:01:30;;;;;;;3.30;1.83;;;18.80;99.90;;;;;;5044155;28;20651;-42
2023/07/16 01:03:56;;;;;;;4.35;2.20;;;18.80;99.90;;;;;;5045011;28;20033;-43
2023/07/16 01:06:31;;;;;;;4.18;2.10;;;18.80;99.90;;;;;;5044016;28;20100;-42
2023/07/16 01:09:16;;;;;;;1.90;1.70;;;18.80;99.90;;;;;;5043794;28;20485;-41
2023/07/16 01:11:42;;;;;;;6.18;2.15;;;18.80;99.90;;;;;;5044175;28;20025;-42
2023/07/16 01:14:09;;;;;;;3.28;1.90;;;18.80;99.90;;;;;;5044722;28;20021;-42
2023/07/16 01:16:34;;;;;;;3.72;2.33;;;18.80;99.90;;;;;;5044359;28;20113;-42
2023/07/16 01:19:00;;;;;;;4.97;2.22;;;18.80;99.90;;;;;;5044065;28;20446;-43
2023/07/16 01:21:53;;;;;;;3.83;2.20;;;18.80;99.90;;;;;;5044529;28;20033;-42
2023/07/16 01:24:38;;;;;;;4.13;2.10;;;18.80;99.90;;;;;;5033330;28;20131;-42
2023/07/16 01:27:30;;;;;;;4.90;2.30;;;18.80;99.90;;;;;;5045800;28;20039;-42
2023/07/16 01:30:01;;;;;;;6.75;2.22;;;18.70;99.90;;;;;;5046935;28;20044;-41
2023/07/16 01:32:29;;;;;;;5.72;2.40;;;18.60;99.90;;;;;;5048522;28;20035;-43
2023/07/16 01:34:55;;;;;;;6.38;2.35;;;18.50;99.90;;;;;;5047972;28;20040;-42
2023/07/16 01:37:21;;;;;;;6.35;2.35;;;18.50;99.90;;;;;;5046947;28;20021;-43
2023/07/16 01:39:47;;;;;;;6.30;2.33;;;18.50;99.90;;;;;;5048035;28;20032;-42
2023/07/16 01:42:15;;;;;;;4.60;2.40;;;18.40;99.90;;;;;;5047495;28;20043;-41
2023/07/16 01:44:41;;;;;;;2.53;1.83;;;18.40;99.90;;;;;;5046812;28;20031;-41
2023/07/16 01:47:43;;;;;;;4.50;1.98;;;18.40;99.90;;;;;;5047397;28;20029;-42
2023/07/16 01:50:08;;;;;;;4.78;2.22;;;18.40;99.90;;;;;;5026927;28;20373;-41
2023/07/16 01:52:34;;;;;;;2.97;1.75;;;18.30;99.90;;;;;;5048286;28;20036;-41
2023/07/16 01:54:59;;;;;;;3.78;2.30;;;18.30;99.90;;;;;;5047897;28;20055;-42
2023/07/16 01:57:25;;;;;;;6.32;2.38;;;18.30;99.90;;;;;;5046639;28;20075;-42
2023/07/16 01:59:50;;;;;;;5.15;2.22;;;18.20;99.90;;;;;;5047575;28;20013;-42
2023/07/16 02:02:16;;;;;;;5.07;2.28;;;18.20;99.90;;;;;;5048270;28;20022;-42
2023/07/16 02:04:42;;;;;;;3.47;1.80;;;18.10;99.90;;;;;;5046620;28;20045;-42
2023/07/16 02:07:07;;;;;;;3.78;2.20;;;18.10;99.90;;;;;;5047259;28;20021;-41
2023/07/16 02:09:34;;;;;;;7.63;3.17;;;18.00;99.90;;;;;;5047391;28;20025;-42
2023/07/16 02:11:59;;;;;;;6.60;2.20;;;18.00;99.90;;;;;;5046427;28;20067;-42
2023/07/16 02:14:25;;;;;;;3.47;2.08;;;18.00;99.90;;;;;;5047315;28;20063;-42
2023/07/16 02:16:53;;;;;;;3.58;2.10;;;17.90;99.90;;;;;;5047780;28;20039;-42
2023/07/16 02:19:23;;;;;;;5.20;2.20;;;17.90;99.90;;;;;;5046092;28;20032;-43
2023/07/16 02:21:48;;;;;;;3.08;1.80;;;17.80;99.90;;;;;;5046966;28;20469;-42
2023/07/16 02:24:14;;;;;;;5.13;2.30;;;17.80;99.90;;;;;;5047008;28;20016;-43
2023/07/16 02:26:40;;;;;;;5.85;2.65;;;17.80;99.90;;;;;;5046454;28;20033;-42
2023/07/16 02:29:08;;;;;;;4.10;2.13;;;17.80;99.90;;;;;;5046911;28;20017;-43
2023/07/16 02:31:34;;;;;;;3.63;2.03;;;17.80;99.90;;;;;;5035946;28;20036;-42
2023/07/16 02:34:00;;;;;;;3.80;2.17;;;17.80;99.90;;;;;;5046158;28;20099;-42
2023/07/16 02:36:25;;;;;;;3.80;2.13;;;17.80;99.90;;;;;;5047289;28;20137;-42
2023/07/16 02:38:51;;;;;;;4.85;2.60;;;17.70;99.90;;;;;;5045884;28;20153;-42
2023/07/16 02:41:17;;;;;;;5.60;2.40;;;17.70;99.90;;;;;;5046160;28;20467;-42
2023/07/16 02:43:54;;;;;;;4.65;2.50;;;17.60;99.90;;;;;;5046417;28;20036;-42
2023/07/16 02:46:41;;;;;;;4.18;2.25;;;17.60;99.90;;;;;;5045861;28;20540;-43
2023/07/16 02:49:07;;;;;;;5.70;2.53;;;17.60;99.90;;;;;;5046390;28;20021;-42
2023/07/16 02:51:32;;;;;;;4.70;2.30;;;17.50;99.90;;;;;;5045931;28;20033;-42
2023/07/16 02:53:58;;;;;;;4.65;1.92;;;17.50;99.90;;;;;;5046008;28;20029;-42
2023/07/16 02:56:23;;;;;;;3.70;1.75;;;17.50;99.90;;;;;;5046367;28;20549;-42
2023/07/16 02:58:49;;;;;;;4.43;2.20;;;17.50;99.90;;;;;;5046235;28;20048;-42
2023/07/16 03:01:15;;;;;;;2.17;1.83;;;17.50;99.90;;;;;;5045618;28;20021;-42
2023/07/16 03:03:43;;;;;;;4.78;1.98;;;17.40;99.90;;;;;;5046478;28;20052;-42
2023/07/16 03:06:09;;;;;;;4.55;1.95;;;17.40;99.90;;;;;;5045863;28;20028;-42
2023/07/16 03:08:35;;;;;;;3.65;1.80;;;17.40;99.90;;;;;;5045457;28;20052;-42
2023/07/16 03:11:00;;;;;;;3.60;2.10;;;17.40;99.90;;;;;;5045879;28;20678;-42
2023/07/16 03:13:29;;;;;;;3.80;2.13;;;17.40;99.90;;;;;;5046229;28;20036;-42
2023/07/16 03:15:55;;;;;;;5.90;2.15;;;17.40;99.90;;;;;;5045284;28;20457;-42
2023/07/16 03:18:20;;;;;;;3.97;1.83;;;17.40;99.90;;;;;;5045769;28;20055;-42
2023/07/16 03:20:46;;;;;;;4.18;1.80;;;17.40;99.90;;;;;;5045519;28;20163;-43
2023/07/16 03:23:11;;;;;;;2.72;1.85;;;17.40;99.90;;;;;;5045608;28;20021;-40
2023/07/16 03:25:37;;;;;;;4.45;2.60;;;17.40;99.90;;;;;;5045999;28;20071;-40
2023/07/16 03:28:03;;;;;;;9.60;2.65;;;17.40;99.90;;;;;;5045915;28;20021;-42
2023/07/16 03:30:30;;;;;;;8.68;2.58;;;17.40;99.90;;;;;;5045684;28;20037;-42
2023/07/16 03:32:56;;;;;;;6.00;2.60;;;17.40;99.90;;;;;;5045340;28;20052;-42
2023/07/16 03:35:22;;;;;;;6.45;2.80;;;17.40;99.90;;;;;;5045382;28;20462;-42
2023/07/16 03:37:48;;;;;;;4.45;2.30;;;17.40;99.90;;;;;;5045669;28;20078;-41
2023/07/16 03:40:18;;;;;;;4.32;2.53;;;17.40;99.90;;;;;;5045953;28;20481;-41
2023/07/16 03:42:44;;;;;;;6.65;3.08;;;17.40;99.90;;;;;;5044798;28;20032;-42
2023/07/16 03:45:11;;;;;;;5.97;2.88;;;17.40;99.90;;;;;;5045594;28;20021;-42
2023/07/16 03:47:36;;;;;;;6.43;2.72;;;17.40;99.90;;;;;;5045957;28;20032;-42
2023/07/16 03:50:03;;;;;;;8.10;3.20;;;17.40;99.90;;;;;;5045165;28;20036;-43
2023/07/16 03:52:30;;;;;;;5.75;3.30;;;17.40;99.90;;;;;;5046003;28;20035;-42
2023/07/16 03:54:56;;;;;;;6.72;2.80;;;17.40;99.90;;;;;;5045746;28;20476;-42
2023/07/16 03:57:22;;;;;;;7.03;3.30;;;17.40;99.90;;;;;;5044714;28;20017;-42
2023/07/16 03:59:47;;;;;;;6.50;3.03;;;17.40;99.90;;;;;;5045530;28;20108;-42
2023/07/16 04:02:13;;;;;;;5.00;3.45;;;17.40;99.90;;;;;;5045635;28;20021;-42
2023/07/16 04:04:38;;;;;;;4.95;2.42;;;17.40;99.90;;;;;;5044946;28;20025;-42
2023/07/16 04:07:10;;;;;;;6.53;2.95;;;17.40;99.90;;;;;;5044816;28;20028;-42
2023/07/16 04:09:39;;;;;;;6.05;2.90;;;17.40;99.90;;;;;;5045477;28;20056;-42
2023/07/16 04:12:08;;;;;;;5.25;2.95;;;17.50;99.90;;;;;;5045437;28;20045;-42
2023/07/16 04:14:34;;;;;;;3.88;2.80;;;17.40;99.90;;;;;;5042178;28;20021;-41
2023/07/16 04:17:00;;;;;;;6.30;2.90;;;17.40;99.90;;;;;;5045339;28;20122;-42
2023/07/16 04:19:25;;;;;;;4.63;2.65;;;17.40;99.90;;;;;;5044737;28;20014;-42
2023/07/16 04:21:51;;;;;;;4.80;2.53;;;17.40;99.90;;;;;;5045336;28;20534;-41
2023/07/16 04:24:16;;;;;;;4.90;2.60;;;17.40;99.90;;;;;;5044827;28;20059;-42
2023/07/16 04:26:42;;;;;;;7.47;3.17;;;17.50;99.90;;;;;;5044230;28;20036;-41
2023/07/16 04:29:07;;;;;;;5.22;2.50;;;17.50;99.90;;;;;;5044978;28;20457;-41
2023/07/16 04:31:33;;;;;;;4.47;2.47;;;17.50;99.90;;;;;;5043997;28;20037;-42
2023/07/16 04:33:59;;;;;;;4.55;2.70;;;17.50;99.90;;;;;;5044322;28;20025;-42
2023/07/16 04:36:25;;;;;;;8.63;3.45;;;17.50;99.90;;;;;;5045530;28;20059;-42
2023/07/16 04:38:50;;;;;;;6.47;2.80;;;17.50;99.90;;;;;;5043767;28;20055;-41
2023/07/16 04:41:16;;;;;;;7.28;3.03;;;17.50;99.90;;;;;;5044277;28;20111;-41
2023/07/16 04:43:42;;;;;;;5.55;3.15;;;17.50;99.90;;;;;;5044306;28;20049;-42
2023/07/16 04:46:07;;;;;;;6.15;2.97;;;17.50;99.90;;;;;;5044007;28;20128;-43
2023/07/16 04:48:33;;;;;;;6.35;3.78;;;17.50;99.90;;;;;;5045001;28;20013;-42
2023/07/16 04:50:59;;;;;;;4.30;3.10;;;17.50;99.90;;;;;;5044720;28;20037;-42
2023/07/16 04:53:25;;;;;;;5.80;3.70;;;17.50;99.90;;;;;;5043994;28;20103;-42
2023/07/16 04:55:50;;;;;;;7.72;3.72;;;17.60;99.90;;;;;;5044840;28;20021;-41
2023/07/16 04:58:16;;;;;;;6.57;3.60;;;17.60;99.90;;;;;;5044643;28;20024;-42
2023/07/16 05:00:42;;;;;;;5.60;3.30;;;17.70;99.90;;;;;;5043635;28;20557;-43
2023/07/16 05:03:11;;;;;;;6.53;3.70;;;17.80;99.90;;;;;;5048325;28;20032;-42
2023/07/16 05:05:36;;;;;;;9.95;3.63;;;17.80;99.90;;;;;;5048706;28;20059;-42
2023/07/16 05:08:02;;;;;;;5.65;3.35;;;17.80;99.90;;;;;;5048003;28;20450;-41
2023/07/16 05:10:28;;;;;;;5.35;3.67;;;17.80;99.90;;;;;;5048504;28;20059;-41
2023/07/16 05:12:53;;;;;;;4.78;3.38;;;17.70;99.90;;;;;;5048737;28;20377;-42
2023/07/16 05:15:19;;;;;;;5.63;3.33;;;17.70;99.90;;;;;;5047871;28;20021;-41
2023/07/16 05:17:45;;;;;;;5.95;3.60;;;17.60;99.90;;;;;;5048844;28;20032;-42
2023/07/16 05:20:10;;;;;;;5.97;3.75;;;17.50;99.90;;;;;;5048441;28;20118;-42
2023/07/16 05:22:36;;;;;;;6.72;3.75;;;17.60;99.90;;;;;;5047212;28;20068;-42
2023/07/16 05:25:02;;;;;;;7.15;4.28;;;17.50;99.90;;;;;;5048570;28;20028;-41
2023/07/16 05:27:28;;;;;;;8.35;4.20;;;17.60;99.90;;;;;;5048522;28;20119;-41
2023/07/16 05:29:54;;;;;;;5.32;3.92;;;17.50;99.90;;;;;;5047017;28;20516;-42
2023/07/16 05:32:21;;;;;;;6.43;3.63;;;17.60;99.90;;;;;;5048763;28;20072;-42
2023/07/16 05:34:46;;;;;;;5.50;3.83;;;17.60;99.90;;;;;;5047584;28;20028;-42
2023/07/16 05:37:12;;;;;;;7.95;4.03;;;17.60;99.90;;;;;;5048089;28;20029;-42
2023/07/16 05:39:41;;;;;;;7.05;4.28;;;17.60;99.90;;;;;;5048805;28;20048;-42
2023/07/16 05:42:07;;;;;;;7.43;3.67;;;17.70;99.90;;;;;;5046923;28;20025;-42
2023/07/16 05:44:33;;;;;;;7.65;4.20;;;17.70;99.90;;;;;;5047936;28;20480;-42
2023/07/16 05:47:01;;;;;;;6.32;3.70;;;17.80;99.90;;;;;;5048003;28;20031;-42
2023/07/16 05:49:27;;;;;;;8.68;4.70;;;17.80;99.90;;;;;;5027650;28;20029;-42
2023/07/16 05:51:54;;;;;;;7.20;4.43;;;17.80;99.90;;;;;;5041578;28;20495;-42
2023/07/16 05:54:19;;;;;;;8.00;4.35;;;17.80;99.90;;;;;;5047912;28;20056;-41
2023/07/16 05:56:48;;;;;;;9.60;4.20;;;17.80;99.90;;;;;;5046922;28;20052;-42
2023/07/16 05:59:13;;;;;;;8.75;3.92;;;17.80;99.90;;;;;;5047450;28;20020;-42
2023/07/16 06:01:39;;;;;;;6.80;4.10;;;17.80;99.90;;;;;;5047473;28;20385;-42
2023/07/16 06:04:04;;;;;;;9.27;4.15;;;17.80;99.90;;;;;;5047007;28;20028;-42
2023/07/16 06:06:31;;;;;;;6.22;4.43;;;17.80;99.90;;;;;;5048186;28;20099;-42
2023/07/16 06:08:59;;;;;;;9.45;4.28;;;17.80;99.90;;;;;;5047348;28;20469;-41
2023/07/16 06:11:24;;;;;;;10.80;4.40;;;17.80;99.90;;;;;;5047326;28;20047;-42
2023/07/16 06:13:54;;;;;;;8.55;4.43;;;17.90;99.90;;;;;;5046813;28;20033;-41
2023/07/16 06:16:20;;;;;;;6.03;4.65;;;17.90;99.90;;;;;;5047438;28;20109;-41
2023/07/16 06:18:45;;;;;;;7.25;4.45;;;17.90;99.90;;;;;;5047003;28;20437;-41
2023/07/16 06:21:11;;;;;;;7.38;4.50;;;17.90;99.90;;;;;;5047404;28;20495;-42
2023/07/16 06:23:38;;;;;;;8.93;4.78;;;18.00;99.90;;;;;;5046711;28;20108;-41
2023/07/16 06:26:03;;;;;;;8.60;4.75;;;18.00;99.90;;;;;;5046269;28;20031;-41
2023/07/16 06:28:29;;;;;;;8.95;4.47;;;18.00;99.90;;;;;;5047745;28;20024;-42
2023/07/16 06:30:55;;;;;;;7.18;4.63;;;18.10;99.90;;;;;;5047227;28;20040;-42
2023/07/16 06:33:20;;;;;;;7.68;4.40;;;18.10;99.90;;;;;;5046465;28;20310;-41
2023/07/16 06:35:47;;;;;;;7.18;4.15;;;18.10;99.90;;;;;;5046734;28;20025;-42
2023/07/16 06:38:16;;;;;;;6.78;4.30;;;18.10;99.90;;;;;;5045906;28;20052;-42
2023/07/16 06:40:48;;;;;;;8.45;4.95;;;18.20;99.90;;;;;;5047332;28;20048;-42
2023/07/16 06:43:17;;;;;;;5.25;4.00;;;18.20;99.90;;;;;;5046688;28;20044;-42
2023/07/16 06:45:42;;;;;;;10.57;4.60;;;18.20;99.90;;;;;;5045941;28;20024;-43
2023/07/16 06:48:11;;;;;;;7.25;4.60;;;18.30;99.90;;;;;;5046051;28;20041;-43
2023/07/16 06:50:37;;;;;;;7.05;4.72;;;18.20;99.90;;;;;;5046992;28;20084;-42
2023/07/16 06:53:03;;;;;;;7.57;4.65;;;18.40;99.90;;;;;;5046307;28;20438;-42
2023/07/16 06:55:28;;;;;;;8.80;4.43;;;18.40;99.90;;;;;;5047340;28;20534;-42
2023/07/16 06:57:54;;;;;;;8.05;4.70;;;18.40;99.90;;;;;;5046608;28;20013;-42
2023/07/16 07:00:19;;;;;;;7.07;4.85;;;18.50;99.90;;;;;;5045858;28;20036;-42
2023/07/16 07:02:45;;;;;;;5.75;4.35;;;18.50;99.90;;;;;;5046567;28;20082;-42
2023/07/16 07:05:10;;;;;;;7.90;4.65;;;18.50;99.90;;;;;;5046855;28;20036;-41
2023/07/16 07:07:36;;;;;;;10.88;5.00;;;18.60;99.90;;;;;;5045674;28;20041;-41
2023/07/16 07:10:02;;;;;;;9.15;5.20;;;18.60;99.90;;;;;;5045639;28;20479;-41
2023/07/16 07:12:27;;;;;;;6.85;4.60;;;18.70;99.90;;;;;;5047073;28;20079;-42
2023/07/16 07:14:53;;;;;;;11.38;5.80;;;18.70;99.90;;;;;;5045460;28;20503;-41
2023/07/16 07:17:19;;;;;;;10.05;5.03;;;18.70;99.90;;;;;;5046382;28;20565;-41
2023/07/16 07:19:47;;;;;;;7.40;5.15;;;18.70;99.90;;;;;;5046450;28;20033;-41
2023/07/16 07:22:13;;;;;;;9.65;4.75;;;18.70;99.90;;;;;;5045516;28;20449;-41
2023/07/16 07:24:38;;;;;;;8.77;5.00;;;18.80;99.90;;;;;;5045401;28;20060;-42
2023/07/16 07:27:04;;;;;;;9.13;4.75;;;18.80;99.90;;;;;;5046182;28;20784;-42
2023/07/16 07:29:30;;;;;;;6.57;5.25;;;18.90;99.90;;;;;;5045681;28;20124;-42
2023/07/16 07:31:55;;;;;;;5.80;4.60;;;18.90;99.90;;;;;;5046032;28;20393;-42
2023/07/16 07:34:21;;;;;;;8.60;4.90;;;19.00;99.90;;;;;;5045611;28;20460;-42
2023/07/16 07:36:53;;;;;;;7.78;5.18;;;19.00;99.90;;;;;;5045456;28;20094;-42
2023/07/16 07:39:18;;;;;;;7.57;5.30;;;19.10;99.90;;;;;;5045445;28;20124;-43
2023/07/16 07:41:44;;;;;;;12.68;5.25;;;19.10;99.90;;;;;;5045262;28;20115;-43
2023/07/16 07:44:09;;;;;;;9.05;4.53;;;19.20;99.90;;;;;;5045232;28;20029;-43
2023/07/16 07:46:35;;;;;;;7.75;5.28;;;19.30;99.90;;;;;;5045729;28;20025;-43
2023/07/16 07:49:00;;;;;;;7.53;5.07;;;19.40;99.90;;;;;;5045251;28;20048;-42
2023/07/16 07:51:26;;;;;;;10.60;5.47;;;19.50;99.90;;;;;;5045554;28;20035;-42
2023/07/16 07:53:52;;;;;;;11.15;5.90;;;19.60;99.90;;;;;;5045532;28;20107;-43
2023/07/16 07:56:17;;;;;;;7.72;5.13;;;19.60;99.90;;;;;;5044796;28;20029;-42
2023/07/16 07:58:43;;;;;;;11.75;5.47;;;19.70;99.90;;;;;;5045409;28;20017;-42
2023/07/16 08:01:09;;;;;;;7.47;4.95;;;19.70;99.90;;;;;;5045236;28;20463;-41
2023/07/16 08:03:35;;;;;;;7.22;4.40;;;19.80;99.90;;;;;;5045283;28;20021;-41
2023/07/16 08:06:00;;;;;;;7.55;5.03;;;19.80;99.90;;;;;;5045241;28;20028;-41
2023/07/16 08:08:26;;;;;;;7.28;4.82;;;19.70;99.90;;;;;;5045793;28;20533;-42
2023/07/16 08:10:53;;;;;;;9.52;5.35;;;19.70;99.90;;;;;;5045009;28;20033;-41
2023/07/16 08:13:18;;;;;;;5.57;4.68;;;19.80;99.90;;;;;;5045480;28;20028;-42
2023/07/16 08:15:49;;;;;;;6.00;4.90;;;19.80;99.90;;;;;;5044917;28;20031;-42
2023/07/16 08:18:15;;;;;;;7.65;4.78;;;19.90;99.90;;;;;;5044766;28;20021;-42
2023/07/16 08:20:41;;;;;;;8.63;4.70;;;20.00;99.90;;;;;;5044918;28;20021;-42
2023/07/16 08:23:06;;;;;;;7.72;4.75;;;20.10;99.90;;;;;;5045359;28;20021;-42
2023/07/16 08:25:35;;;;;;;7.38;4.40;;;20.20;99.90;;;;;;5044318;28;20400;-42
2023/07/16 08:28:07;;;;;;;7.97;5.25;;;20.40;99.90;;;;;;5041870;28;20029;-41
2023/07/16 08:30:33;;;;;;;10.48;5.80;;;20.50;99.90;;;;;;5045343;28;20029;-42
2023/07/16 08:32:58;;;;;;;9.35;5.40;;;20.60;99.90;;;;;;5043715;28;20032;-41
2023/07/16 08:35:24;;;;;;;9.60;5.38;;;20.60;99.90;;;;;;5045579;28;20115;-42
2023/07/16 08:37:50;;;;;;;8.73;5.15;;;20.70;99.90;;;;;;5043453;28;20060;-42
2023/07/16 08:40:15;;;;;;;7.75;5.35;;;20.70;99.90;;;;;;5045259;28;20041;-42
2023/07/16 08:42:44;;;;;;;8.43;5.50;;;20.70;99.90;;;;;;5045443;28;20044;-42
2023/07/16 08:45:11;;;;;;;7.55;4.82;;;20.70;99.90;;;;;;5044722;28;20095;-42
2023/07/16 08:47:36;;;;;;;7.18;4.90;;;20.80;99.90;;;;;;5044719;28;20432;-42
2023/07/16 08:50:03;;;;;;;15.20;4.97;;;21.00;99.90;;;;;;5045030;28;20621;-42
2023/07/16 08:52:30;;;;;;;9.48;4.90;;;21.20;99.90;;;;;;5044734;28;20029;-41
2023/07/16 08:54:56;;;;;;;9.82;5.00;;;21.30;99.90;;;;;;5045551;28;20086;-43
2023/07/16 08:57:22;;;;;;;11.10;5.80;;;21.40;99.90;;;;;;5044823;28;20021;-42
2023/07/16 08:59:49;;;;;;;7.65;5.60;;;21.50;99.90;;;;;;5043894;28;20036;-42
2023/07/16 09:02:18;;;;;;;9.30;5.05;;;21.40;99.90;;;;;;5044897;28;20028;-41
2023/07/16 09:04:44;;;;;;;8.30;5.38;;;21.40;99.90;;;;;;5044621;28;20028;-40
2023/07/16 09:07:09;;;;;;;6.90;4.40;;;21.40;99.90;;;;;;5044452;28;20017;-42
2023/07/16 09:09:35;;;;;;;7.40;4.70;;;21.40;99.90;;;;;;5045129;28;20480;-42
2023/07/16 09:12:02;;;;;;;6.85;3.92;;;21.40;99.90;;;;;;5045010;28;20029;-42
2023/07/16 09:14:27;;;;;;;7.18;4.68;;;21.40;99.90;;;;;;5043999;28;20029;-42
2023/07/16 09:16:53;;;;;;;6.82;4.85;;;21.50;99.90;;;;;;5045449;28;20079;-42
2023/07/16 09:19:19;;;;;;;7.93;4.65;;;21.60;99.90;;;;;;5044598;28;20060;-43
2023/07/16 09:21:51;;;;;;;7.80;4.38;;;21.80;99.80;;;;;;5044798;28;20044;-42
2023/07/16 09:24:19;;;;;;;6.38;4.55;;;21.80;99.90;;;;;;5044453;28;20025;-42
2023/07/16 09:26:56;;;;;;;6.95;4.70;;;22.00;99.70;;;;;;5044317;28;20108;-42
2023/07/16 09:29:21;;;;;;;5.53;4.57;;;22.00;99.70;;;;;;5044892;28;20079;-42
2023/07/16 09:31:57;;;;;;;7.03;3.90;;;22.00;99.50;;;;;;5044446;28;20041;-41
2023/07/16 09:34:26;;;;;;;8.13;4.68;;;22.00;99.70;;;;;;5044295;28;20040;-42
2023/07/16 09:36:52;;;;;;;7.55;3.92;;;22.00;99.80;;;;;;5045170;28;20056;-41
2023/07/16 09:39:19;;;;;;;9.18;4.47;;;22.00;99.60;;;;;;5044089;28;20065;-42
2023/07/16 09:41:49;;;;;;;6.70;4.18;;;22.00;99.40;;;;;;5044113;28;20033;-42
2023/07/16 09:44:16;;;;;;;7.35;4.45;;;21.80;99.30;;;;;;5044536;28;20025;-42
2023/07/16 09:46:42;;;;;;;4.22;3.70;;;21.70;99.20;;;;;;5044692;28;20033;-41
2023/07/16 09:49:09;;;;;;;9.18;4.78;;;21.50;99.40;;;;;;5046672;28;20024;-42
2023/07/16 09:51:38;;;;;;;7.22;4.60;;;21.50;99.50;;;;;;5048237;28;20088;-42
2023/07/16 09:54:05;;;;;;;6.60;4.30;;;21.50;99.60;;;;;;5048041;28;20024;-42
2023/07/16 09:56:39;;;;;;;5.88;3.60;;;21.50;99.50;;;;;;5047609;28;20025;-42
2023/07/16 09:59:22;;;;;;;7.63;4.07;;;21.60;99.60;;;;;;5048279;28;20051;-43
2023/07/16 10:01:50;;;;;;;6.57;3.97;;;21.70;99.60;;;;;;5038941;28;20029;-42
2023/07/16 10:04:19;;;;;;;7.60;4.20;;;21.80;99.60;;;;;;5046938;28;20866;-41
2023/07/16 10:06:56;;;;;;;5.45;3.55;;;21.90;99.50;;;;;;5037116;28;20040;-41
2023/07/16 10:09:39;;;;;;;6.80;4.15;;;22.10;99.40;;;;;;5047570;28;20041;-42
2023/07/16 10:12:17;;;;;;;7.43;4.43;;;22.20;99.20;;;;;;5038321;28;20033;-42
2023/07/16 10:14:52;;;;;;;7.20;4.22;;;22.30;99.10;;;;;;5047516;28;20013;-41
2023/07/16 10:17:22;;;;;;;6.97;4.30;;;22.50;99.10;;;;;;5047000;28;20955;-42
2023/07/16 10:19:51;;;;;;;7.70;4.22;;;22.60;98.90;;;;;;5048195;28;20036;-42
2023/07/16 10:22:33;;;;;;;5.38;3.92;;;22.70;98.50;;;;;;5037486;28;20040;-42
2023/07/16 10:25:00;;;;;;;5.38;4.10;;;22.70;98.40;;;;;;5047258;28;20025;-42
2023/07/16 10:27:36;;;;;;;5.90;4.50;;;22.70;98.50;;;;;;5036632;28;20025;-41
2023/07/16 10:30:04;;;;;;;5.55;3.92;;;22.60;98.10;;;;;;5047538;28;20036;-42
2023/07/16 10:32:31;;;;;;;6.43;3.50;;;22.60;97.90;;;;;;5046909;28;20021;-41
2023/07/16 10:34:58;;;;;;;5.53;3.80;;;22.60;98.10;;;;;;5047009;28;20381;-42
2023/07/16 10:37:24;;;;;;;8.80;4.13;;;22.60;98.00;;;;;;5046553;28;20033;-42
2023/07/16 10:39:52;;;;;;;4.78;3.25;;;22.60;97.90;;;;;;5046729;28;20025;-42
2023/07/16 10:42:19;;;;;;;4.55;3.50;;;22.50;98.10;;;;;;5046500;28;20175;-42
2023/07/16 10:44:45;;;;;;;7.00;4.18;;;22.50;98.10;;;;;;5046267;28;20028;-43
2023/07/16 10:47:34;;;;;;;5.90;3.58;;;22.50;97.70;;;;;;5046632;28;20032;-42
2023/07/16 10:50:02;;;;;;;5.50;3.45;;;22.60;98.00;;;;;;5047175;28;20098;-42
2023/07/16 10:52:28;;;;;;;5.15;3.40;;;22.60;97.80;;;;;;5045994;28;20422;-42
2023/07/16 10:54:54;;;;;;;5.90;4.03;;;22.60;97.80;;;;;;5046726;28;20036;-41
2023/07/16 10:57:21;;;;;;;5.57;3.40;;;22.70;97.80;;;;;;5046742;28;20032;-41
2023/07/16 10:59:48;;;;;;;4.80;3.30;;;22.80;97.80;;;;;;5045101;28;20083;-42
2023/07/16 11:02:15;;;;;;;5.65;3.50;;;22.90;97.60;;;;;;5046174;28;20354;-41
2023/07/16 11:04:42;;;;;;;4.70;3.15;;;22.90;97.50;;;;;;5045859;28;20035;-41
2023/07/16 11:07:08;;;;;;;6.45;3.60;;;22.90;97.60;;;;;;5045815;28;20205;-41
2023/07/16 11:09:39;;;;;;;5.80;3.53;;;22.80;97.60;;;;;;5045974;28;20043;-42
2023/07/16 11:12:09;;;;;;;6.75;3.85;;;22.70;97.60;;;;;;5045998;28;20024;-41
2023/07/16 11:14:35;;;;;;;4.93;3.75;;;22.50;97.60;;;;;;5045284;28;20025;-43
2023/07/16 11:17:10;;;;;;;6.00;3.90;;;22.40;97.40;;;;;;5045939;28;20075;-40
2023/07/16 11:19:36;;;;;;;6.40;3.85;;;22.20;97.30;;;;;;5045826;28;20037;-41
2023/07/16 11:22:04;;;;;;;5.97;3.42;;;22.10;97.30;;;;;;5045536;28;20017;-41
2023/07/16 11:24:47;;;;;;;4.82;3.42;;;22.10;97.60;;;;;;5046476;28;20025;-42
2023/07/16 11:27:18;;;;;;;5.88;3.75;;;22.10;97.60;;;;;;5045101;28;20021;-42
2023/07/16 11:29:56;;;;;;;6.13;3.55;;;22.20;97.80;;;;;;5045769;28;20025;-42
2023/07/16 11:32:33;;;;;;;6.28;3.58;;;22.30;97.60;;;;;;5045968;28;20070;-41
2023/07/16 11:35:00;;;;;;;5.00;3.00;;;22.40;97.50;;;;;;5045470;28;20036;-43
2023/07/16 11:37:27;;;;;;;4.90;3.28;;;22.50;97.60;;;;;;5046421;28;20021;-42
2023/07/16 11:40:04;;;;;;;4.78;3.00;;;22.60;97.60;;;;;;5045564;28;20040;-42
2023/07/16 11:42:37;;;;;;;4.88;3.38;;;22.80;97.60;;;;;;5045196;28;20385;-42
2023/07/16 11:45:05;;;;;;;7.15;3.97;;;22.90;97.20;;;;;;5034958;28;20025;-41
2023/07/16 11:47:31;;;;;;;6.00;4.22;;;22.80;97.30;;;;;;5046106;28;20655;-42
2023/07/16 11:49:57;;;;;;;4.70;3.58;;;22.70;97.60;;;;;;5045777;28;20037;-42
2023/07/16 11:52:25;;;;;;;6.18;4.57;;;22.50;98.00;;;;;;5045616;28;20081;-42
2023/07/16 11:54:56;;;;;;;5.10;3.30;;;22.40;98.30;;;;;;5044899;28;20017;-42
2023/07/16 11:57:22;;;;;;;5.70;3.55;;;22.40;98.40;;;;;;5045376;28;20036;-42
2023/07/16 11:59:48;;;;;;;6.22;4.10;;;22.30;98.30;;;;;;5045257;28;20041;-41
2023/07/16 12:02:14;;;;;;;6.38;3.42;;;22.30;98.40;;;;;;5045252;28;20040;-41
2023/07/16 12:04:40;;;;;;;6.05;3.50;;;22.40;98.40;;;;;;5044789;28;20025;-41
2023/07/16 12:07:06;;;;;;;5.63;3.65;;;22.50;98.70;;;;;;5045309;28;20029;-42
2023/07/16 12:09:32;;;;;;;5.40;3.63;;;22.70;98.30;;;;;;5044599;28;20020;-42
2023/07/16 12:11:58;;;;;;;7.13;3.60;;;22.80;97.90;;;;;;5044565;28;20461;-42
2023/07/16 12:14:30;;;;;;;5.40;3.58;;;22.90;97.70;;;;;;5045268;28;20527;-41
2023/07/16 12:16:56;;;;;;;4.97;3.50;;;23.00;97.70;;;;;;5044743;28;20089;-42
2023/07/16 12:19:22;;;;;;;4.28;3.40;;;23.10;97.50;;;;;;5045192;28;20461;-41
2023/07/16 12:21:51;;;;;;;5.82;3.90;;;23.20;97.50;;;;;;5045015;28;20024;-41
2023/07/16 12:24:17;;;;;;;5.57;3.53;;;23.20;97.30;;;;;;5044170;28;20029;-41
2023/07/16 12:26:42;;;;;;;5.93;3.47;;;23.20;97.40;;;;;;5045148;28;20476;-41
2023/07/16 12:29:11;;;;;;;7.28;3.55;;;23.20;97.30;;;;;;5044428;28;20048;-41
2023/07/16 12:31:36;;;;;;;3.88;2.88;;;23.30;97.50;;;;;;5033355;28;20164;-42
2023/07/16 12:34:02;;;;;;;5.35;3.97;;;23.40;97.60;;;;;;5044863;28;20013;-41
2023/07/16 12:36:28;;;;;;;4.75;3.40;;;23.40;96.70;;;;;;5045202;28;20040;-41
2023/07/16 12:38:54;;;;;;;7.07;3.60;;;23.30;97.00;;;;;;5044461;28;20761;-41
2023/07/16 12:41:20;;;;;;;7.80;3.65;;;23.30;97.40;;;;;;5043618;28;20361;-41
2023/07/16 12:43:52;;;;;;;6.30;3.92;;;23.20;97.60;;;;;;5045114;28;20108;-42
2023/07/16 12:46:20;;;;;;;;;;;23.20;97.70;;;;;;5045886;28;20025;-41